Time;durP1;ratioP1;P1;durP2;ratioP2;P2;SDS_P1;SDS_P2;PMS_P1;PMS_P2;Temp;Humidity;BMP_temperature;BMP_pressure;BME280_temperature;BME280_humidity;BME280_pressure;Samples;Min_cycle;Max_cycle;Signal;HPM_P1;HPM_P2
2022/03/13 00:02:00;;;;;;;;;;;;;;;0.00;35.86;101116.69;4401118;32;35609;-77
2022/03/13 00:04:27;;;;;;;;;;;;;;;-0.07;35.91;101115.16;4386996;32;34134;-77
2022/03/13 00:06:56;;;;;;;;;;;;;;;0.02;35.63;101117.50;4402978;32;33205;-78
2022/03/13 00:09:25;;;;;;;;;;;;;;;-0.02;35.73;101115.88;4408218;32;33866;-77
2022/03/13 00:11:54;;;;;;;;;;;;;;;-0.08;36.08;101114.34;4408342;32;34686;-77
2022/03/13 00:14:24;;;;;;;;;;;;;;;-0.11;36.17;101104.84;4400187;32;34890;-77
2022/03/13 00:16:53;;;;;;;;;;;;;;;-0.11;35.94;101107.44;4404513;32;33190;-77
2022/03/13 00:19:22;;;;;;;;;;;;;;;-0.12;35.91;101110.97;4407453;32;33998;-77
2022/03/13 00:21:53;;;;;;;;;;;;;;;-0.10;36.10;101105.72;4402954;32;34742;-77
2022/03/13 00:24:22;;;;;;;;;;;;;;;-0.16;36.07;101103.25;4391053;32;34782;-77
2022/03/13 00:26:51;;;;;;;;;;;;;;;-0.20;36.08;101106.88;4390799;32;31700;-77
2022/03/13 00:29:19;;;;;;;;;;;;;;;-0.27;36.05;101106.22;4398870;32;35282;-77
2022/03/13 00:31:50;;;;;;;;;;;;;;;-0.40;36.40;101104.84;4396633;32;34470;-77
2022/03/13 00:34:17;;;;;;;;;;;;;;;-0.77;37.33;101098.94;4400596;32;34945;-77
2022/03/13 00:36:44;;;;;;;;;;;;;;;-0.59;36.90;101095.81;4393305;32;33678;-78
2022/03/13 00:39:12;;;;;;;;;;;;;;;-0.58;36.80;101096.69;4399955;32;33699;-77
2022/03/13 00:41:40;;;;;;;;;;;;;;;-0.49;36.62;101099.88;4398865;32;36903;-79
2022/03/13 00:44:08;;;;;;;;;;;;;;;-0.54;36.76;101101.78;4414463;32;35347;-76
2022/03/13 00:46:36;;;;;;;;;;;;;;;-0.64;36.86;101099.47;4413058;32;32917;-77
2022/03/13 00:49:04;;;;;;;;;;;;;;;-0.91;38.41;101101.09;4399979;32;34268;-77
2022/03/13 00:51:31;;;;;;;;;;;;;;;-0.81;38.26;101106.91;4413247;32;34683;-78
2022/03/13 00:53:59;;;;;;;;;;;;;;;-0.66;37.60;101101.28;4394947;32;34654;-77
2022/03/13 00:56:26;;;;;;;;;;;;;;;-1.13;38.49;101102.56;4377931;32;791563;-78
2022/03/13 00:58:54;;;;;;;;;;;;;;;-0.91;37.90;101101.09;4409807;32;34800;-78
2022/03/13 01:01:21;;;;;;;;;;;;;;;-0.70;37.32;101102.25;4390589;32;35383;-77
2022/03/13 01:03:52;;;;;;;;;;;;;;;-0.94;37.98;101095.09;4390852;32;34027;-77
2022/03/13 01:06:20;;;;;;;;;;;;;;;-0.91;37.94;101093.25;4402708;32;32300;-78
2022/03/13 01:08:50;;;;;;;;;;;;;;;-1.04;38.51;101091.03;4414658;32;33501;-77
2022/03/13 01:11:18;;;;;;;;;;;;;;;-0.87;37.82;101088.81;4414684;32;36006;-77
2022/03/13 01:13:46;;;;;;;;;;;;;;;-0.81;37.58;101079.06;4388760;32;33209;-77
2022/03/13 01:16:15;;;;;;;;;;;;;;;-0.80;37.60;101085.97;4408493;32;33336;-77
2022/03/13 01:18:48;;;;;;;;;;;;;;;-0.67;37.16;101083.88;4413832;32;33995;-76
2022/03/13 01:21:16;;;;;;;;;;;;;;;-0.94;38.26;101088.09;4413136;32;34034;-77
2022/03/13 01:23:55;;;;;;;;;;;;;;;-0.93;38.15;101083.75;4399523;32;34559;-77
2022/03/13 01:26:23;;;;;;;;;;;;;;;-0.82;38.06;101074.72;4408175;32;33757;-78
2022/03/13 01:28:51;;;;;;;;;;;;;;;-1.10;38.08;101079.00;4399736;32;34791;-76
2022/03/13 01:31:28;;;;;;;;;;;;;;;-0.82;37.53;101082.56;4390133;32;34567;-77
2022/03/13 01:33:57;;;;;;;;;;;;;;;-0.65;37.09;101084.69;4401919;32;34480;-77
2022/03/13 01:36:24;;;;;;;;;;;;;;;-0.61;37.29;101087.19;4386060;32;32100;-76
2022/03/13 01:38:53;;;;;;;;;;;;;;;-1.05;38.61;101089.31;4384478;32;31379;-77
2022/03/13 01:41:21;;;;;;;;;;;;;;;-0.80;38.01;101082.50;4388061;32;34873;-76
2022/03/13 01:43:48;;;;;;;;;;;;;;;-0.77;37.67;101077.22;4407495;32;33725;-77
2022/03/13 01:46:15;;;;;;;;;;;;;;;-0.85;37.68;101077.41;4395471;32;33617;-77
2022/03/13 01:48:52;;;;;;;;;;;;;;;-0.87;37.74;101073.16;4411069;32;34971;-77
2022/03/13 01:51:20;;;;;;;;;;;;;;;-0.99;38.01;101071.72;4386404;32;35813;-77
2022/03/13 01:53:49;;;;;;;;;;;;;;;-1.23;38.73;101066.31;4376566;32;34564;-77
2022/03/13 01:56:17;;;;;;;;;;;;;;;-1.23;38.87;101068.91;4404928;32;32976;-77
2022/03/13 01:58:44;;;;;;;;;;;;;;;-1.30;38.92;101062.12;4395046;32;32305;-78
2022/03/13 02:01:13;;;;;;;;;;;;;;;-1.32;38.87;101059.56;4395935;32;35713;-77
2022/03/13 02:03:41;;;;;;;;;;;;;;;-1.11;38.38;101059.00;4405646;32;34382;-78
2022/03/13 02:06:08;;;;;;;;;;;;;;;-1.02;38.21;101063.97;4406955;32;32678;-77
2022/03/13 02:08:37;;;;;;;;;;;;;;;-1.20;38.68;101061.00;4408906;32;33709;-77
2022/03/13 02:11:05;;;;;;;;;;;;;;;-1.13;38.73;101058.16;4401482;32;34837;-78
2022/03/13 02:13:34;;;;;;;;;;;;;;;-1.14;38.82;101055.62;4408793;32;33949;-78
2022/03/13 02:16:02;;;;;;;;;;;;;;;-1.16;38.70;101052.16;4402478;32;33195;-78
2022/03/13 02:18:30;;;;;;;;;;;;;;;-1.07;38.59;101046.69;4388734;32;33167;-77
2022/03/13 02:20:57;;;;;;;;;;;;;;;-0.99;38.18;101048.22;4406475;32;34995;-77
2022/03/13 02:23:28;;;;;;;;;;;;;;;-1.34;39.15;101056.12;4412913;32;34591;-76
2022/03/13 02:25:59;;;;;;;;;;;;;;;-1.37;39.49;101058.84;4399304;32;33385;-77
2022/03/13 02:28:29;;;;;;;;;;;;;;;-1.48;39.66;101057.37;4396269;32;32343;-77
2022/03/13 02:30:58;;;;;;;;;;;;;;;-1.39;39.33;101050.19;4408036;32;34834;-77
2022/03/13 02:33:26;;;;;;;;;;;;;;;-1.19;38.88;101047.91;4399642;32;35384;-77
2022/03/13 02:36:00;;;;;;;;;;;;;;;-1.35;39.08;101056.16;4412367;32;33697;-77
2022/03/13 02:38:30;;;;;;;;;;;;;;;-1.67;40.24;101051.78;4389736;32;34840;-78
2022/03/13 02:40:58;;;;;;;;;;;;;;;-1.65;39.97;101054.34;4385251;32;35531;-77
2022/03/13 02:43:25;;;;;;;;;;;;;;;-1.68;39.81;101052.66;4398636;32;33570;-77
2022/03/13 02:45:53;;;;;;;;;;;;;;;-1.44;39.33;101046.81;4394824;32;33475;-77
2022/03/13 02:48:20;;;;;;;;;;;;;;;-1.34;38.97;101050.06;4403620;32;34094;-77
2022/03/13 02:50:47;;;;;;;;;;;;;;;-1.54;39.53;101047.97;4405546;32;34314;-77
2022/03/13 02:53:16;;;;;;;;;;;;;;;-1.59;39.66;101046.38;4403103;32;34011;-78
2022/03/13 02:55:44;;;;;;;;;;;;;;;-1.63;39.84;101042.97;4405983;32;33358;-77
2022/03/13 02:58:13;;;;;;;;;;;;;;;-1.55;39.98;101048.88;4390694;32;33724;-77
2022/03/13 03:00:52;;;;;;;;;;;;;;;-1.46;39.45;101042.53;4403648;32;35795;-77
2022/03/13 03:03:24;;;;;;;;;;;;;;;-1.58;39.62;101048.09;4391124;32;34488;-78
2022/03/13 03:05:52;;;;;;;;;;;;;;;-1.58;39.92;101043.72;4396403;32;33876;-77
2022/03/13 03:08:20;;;;;;;;;;;;;;;-1.41;39.41;101045.91;4398744;32;32296;-77
2022/03/13 03:10:47;;;;;;;;;;;;;;;-1.49;39.33;101042.62;4390499;32;35163;-78
2022/03/13 03:13:15;;;;;;;;;;;;;;;-1.56;39.38;101038.44;4385334;32;33954;-77
2022/03/13 03:15:45;;;;;;;;;;;;;;;-1.36;38.85;101041.41;4408738;32;33816;-78
2022/03/13 03:18:13;;;;;;;;;;;;;;;-1.51;39.35;101040.03;4400107;32;34135;-78
2022/03/13 03:20:41;;;;;;;;;;;;;;;-1.62;39.64;101039.47;4395761;32;36107;-77
2022/03/13 03:23:08;;;;;;;;;;;;;;;-1.80;40.28;101039.94;4410405;32;35270;-77
2022/03/13 03:25:35;;;;;;;;;;;;;;;-1.65;39.97;101038.69;4399267;32;32984;-79
2022/03/13 03:28:03;;;;;;;;;;;;;;;-1.66;40.10;101040.47;4397419;32;32920;-77
2022/03/13 03:30:30;;;;;;;;;;;;;;;-1.82;40.36;101033.03;4397475;32;35054;-77
2022/03/13 03:33:01;;;;;;;;;;;;;;;-1.93;41.18;101032.44;4404928;32;33929;-77
2022/03/13 03:35:29;;;;;;;;;;;;;;;-1.92;40.98;101034.16;4394462;32;33368;-77
2022/03/13 03:37:56;;;;;;;;;;;;;;;-1.85;40.90;101027.91;4398776;32;33766;-77
2022/03/13 03:40:25;;;;;;;;;;;;;;;-1.80;40.73;101028.66;4373298;32;33460;-77
2022/03/13 03:42:57;;;;;;;;;;;;;;;-1.64;39.98;101019.53;4395632;32;35252;-77
2022/03/13 03:45:24;;;;;;;;;;;;;;;-1.74;39.95;101024.13;4408918;32;32582;-77
2022/03/13 03:47:51;;;;;;;;;;;;;;;-1.72;40.16;101019.72;4404177;32;34980;-77
2022/03/13 03:50:19;;;;;;;;;;;;;;;-1.86;40.06;101020.97;4392717;32;34227;-76
2022/03/13 03:52:47;;;;;;;;;;;;;;;-1.68;39.86;101012.69;4409216;32;34125;-77
2022/03/13 03:55:14;;;;;;;;;;;;;;;-1.78;40.05;101011.22;4390719;32;33346;-77
2022/03/13 03:57:41;;;;;;;;;;;;;;;-1.78;39.83;101012.03;4407478;32;35011;-77
2022/03/13 04:00:10;;;;;;;;;;;;;;;-1.73;39.85;101015.41;4390662;32;36493;-77
2022/03/13 04:02:40;;;;;;;;;;;;;;;-1.71;39.90;101012.78;4406126;32;34035;-79
2022/03/13 04:05:08;;;;;;;;;;;;;;;-1.75;40.03;101014.59;4397096;32;33473;-77
2022/03/13 04:07:38;;;;;;;;;;;;;;;-1.70;39.97;101009.28;4415906;32;33265;-78
2022/03/13 04:10:08;;;;;;;;;;;;;;;-1.60;39.65;101018.56;4412689;32;34801;-78
2022/03/13 04:12:36;;;;;;;;;;;;;;;-1.80;40.78;101020.84;4413311;32;34078;-77
2022/03/13 04:15:03;;;;;;;;;;;;;;;-1.63;40.40;101013.41;4387865;32;33625;-78
2022/03/13 04:17:31;;;;;;;;;;;;;;;-1.47;39.87;101012.12;4411515;32;35109;-77
2022/03/13 04:19:59;;;;;;;;;;;;;;;-1.46;39.59;101008.62;4396819;32;34753;-77
2022/03/13 04:22:27;;;;;;;;;;;;;;;-1.75;40.02;101009.38;4399162;32;34839;-77
2022/03/13 04:24:55;;;;;;;;;;;;;;;-1.75;40.23;101004.16;4405277;32;32238;-77
2022/03/13 04:27:25;;;;;;;;;;;;;;;-1.86;40.43;101010.53;4408862;32;34342;-77
2022/03/13 04:29:53;;;;;;;;;;;;;;;-1.76;39.87;101009.41;4404725;32;34905;-78
2022/03/13 04:32:23;;;;;;;;;;;;;;;-1.98;40.16;101011.69;4390548;32;34916;-77
2022/03/13 04:34:50;;;;;;;;;;;;;;;-1.70;39.59;101002.28;4413181;32;32519;-77
2022/03/13 04:37:19;;;;;;;;;;;;;;;-1.65;39.56;101002.16;4400192;32;33549;-77
2022/03/13 04:39:50;;;;;;;;;;;;;;;-1.72;39.74;101003.22;4401157;32;36082;-77
2022/03/13 04:42:18;;;;;;;;;;;;;;;-1.99;40.46;101004.75;4406811;32;34370;-77
2022/03/13 04:44:45;;;;;;;;;;;;;;;-1.91;40.50;101004.56;4386331;32;33887;-77
2022/03/13 04:47:13;;;;;;;;;;;;;;;-1.99;40.50;100998.72;4404693;32;34813;-77
2022/03/13 04:49:41;;;;;;;;;;;;;;;-2.03;40.79;100997.94;4400863;32;35287;-76
2022/03/13 04:52:13;;;;;;;;;;;;;;;-1.85;40.09;100987.03;4398664;32;34464;-78
2022/03/13 04:54:41;;;;;;;;;;;;;;;-1.94;40.64;101000.31;4406498;32;33158;-77
2022/03/13 04:57:08;;;;;;;;;;;;;;;-1.80;40.09;100989.53;4395395;32;33118;-78
2022/03/13 04:59:36;;;;;;;;;;;;;;;-1.80;40.13;100987.75;4400270;32;34609;-78
2022/03/13 05:02:03;;;;;;;;;;;;;;;-1.68;39.70;100989.22;4386446;32;35482;-77
2022/03/13 05:04:32;;;;;;;;;;;;;;;-1.65;39.41;100987.38;4389604;32;31721;-77
2022/03/13 05:06:59;;;;;;;;;;;;;;;-1.84;40.06;100995.69;4382491;32;33833;-77
2022/03/13 05:09:33;;;;;;;;;;;;;;;-2.12;40.81;100989.47;4386594;32;36222;-78
2022/03/13 05:12:10;;;;;;;;;;;;;;;-2.05;41.33;100997.06;4385971;32;32882;-77
2022/03/13 05:14:37;;;;;;;;;;;;;;;-2.03;40.98;100999.66;4403330;32;33457;-77
2022/03/13 05:17:05;;;;;;;;;;;;;;;-1.97;41.46;101000.34;4394488;32;35561;-77
2022/03/13 05:19:32;;;;;;;;;;;;;;;-1.77;40.38;101007.69;4394065;32;35831;-77
2022/03/13 05:22:01;;;;;;;;;;;;;;;-1.72;39.83;101003.22;4390176;32;35978;-77
2022/03/13 05:24:28;;;;;;;;;;;;;;;-1.67;39.56;101009.19;4413205;32;32893;-77
2022/03/13 05:26:55;;;;;;;;;;;;;;;-1.82;39.67;101010.44;4390767;32;33709;-77
2022/03/13 05:29:23;;;;;;;;;;;;;;;-1.80;40.01;101008.62;4386186;32;35063;-78
2022/03/13 05:31:50;;;;;;;;;;;;;;;-1.65;39.54;101007.38;4386028;32;35270;-77
2022/03/13 05:34:18;;;;;;;;;;;;;;;-1.79;40.25;101006.87;4404582;32;32676;-77
2022/03/13 05:36:46;;;;;;;;;;;;;;;-1.76;40.42;101002.47;4403387;32;33496;-78
2022/03/13 05:39:14;;;;;;;;;;;;;;;-1.71;40.49;101008.41;4414395;32;34905;-78
2022/03/13 05:41:42;;;;;;;;;;;;;;;-1.59;40.17;101002.84;4395829;32;34314;-77
2022/03/13 05:44:12;;;;;;;;;;;;;;;-1.62;40.03;101010.78;4400108;32;33091;-77
2022/03/13 05:46:40;;;;;;;;;;;;;;;-1.77;40.70;101012.91;4403868;32;33275;-77
2022/03/13 05:49:08;;;;;;;;;;;;;;;-1.40;40.02;101013.69;4400537;32;33306;-77
2022/03/13 05:51:39;;;;;;;;;;;;;;;-1.45;40.14;101013.81;4373720;32;32754;-77
2022/03/13 05:54:07;;;;;;;;;;;;;;;-1.55;40.99;101009.72;4407423;32;33407;-77
2022/03/13 05:56:36;;;;;;;;;;;;;;;-1.44;40.51;101012.03;4414606;32;33346;-77
2022/03/13 05:59:03;;;;;;;;;;;;;;;-1.56;40.29;101007.16;4408634;32;35085;-78
2022/03/13 06:01:30;;;;;;;;;;;;;;;-1.11;39.28;101000.69;4408779;32;34839;-78
2022/03/13 06:03:59;;;;;;;;;;;;;;;-0.94;39.16;100999.31;4378123;32;32507;-77
2022/03/13 06:06:27;;;;;;;;;;;;;;;-0.84;38.79;101005.97;4402426;32;33562;-77
2022/03/13 06:08:54;;;;;;;;;;;;;;;-0.95;38.63;100997.59;4411945;32;36005;-77
2022/03/13 06:11:22;;;;;;;;;;;;;;;-1.08;39.20;101000.59;4392839;32;34907;-78
2022/03/13 06:13:49;;;;;;;;;;;;;;;-0.66;39.23;101007.22;4398518;32;34210;-77
2022/03/13 06:16:18;;;;;;;;;;;;;;;-0.92;40.54;101007.97;4400015;32;34352;-77
2022/03/13 06:18:46;;;;;;;;;;;;;;;-0.39;40.06;101002.00;4405288;32;34571;-78
2022/03/13 06:21:15;;;;;;;;;;;;;;;-0.22;38.56;101009.34;4408652;32;34558;-77
2022/03/13 06:23:43;;;;;;;;;;;;;;;0.04;38.38;101010.22;4405026;32;34683;-78
2022/03/13 06:26:10;;;;;;;;;;;;;;;0.17;38.29;101011.50;4402327;32;34188;-77
2022/03/13 06:28:38;;;;;;;;;;;;;;;0.15;38.36;101011.56;4403765;32;35247;-78
2022/03/13 06:31:06;;;;;;;;;;;;;;;0.34;38.38;101011.81;4384975;32;34831;-78
2022/03/13 06:33:34;;;;;;;;;;;;;;;0.12;39.43;101011.66;4385368;32;33099;-78
2022/03/13 06:36:02;;;;;;;;;;;;;;;0.05;39.23;101019.75;4390682;32;32484;-78
2022/03/13 06:38:29;;;;;;;;;;;;;;;0.44;38.81;101010.59;4397599;32;34820;-77
2022/03/13 06:40:57;;;;;;;;;;;;;;;0.42;39.10;101018.50;4398407;32;35823;-78
2022/03/13 06:43:24;;;;;;;;;;;;;;;0.74;39.10;101027.84;4404176;32;33201;-78
2022/03/13 06:45:51;;;;;;;;;;;;;;;1.03;38.27;101033.78;4397355;32;33027;-77
2022/03/13 06:48:21;;;;;;;;;;;;;;;1.14;37.78;101025.56;4407615;32;36104;-78
2022/03/13 06:50:53;;;;;;;;;;;;;;;1.42;37.14;101029.69;4405813;32;34998;-78
2022/03/13 06:53:21;;;;;;;;;;;;;;;1.68;36.03;101026.94;4387307;32;31614;-78
2022/03/13 06:55:51;;;;;;;;;;;;;;;1.83;35.42;101033.34;4386929;32;33874;-79
2022/03/13 06:58:20;;;;;;;;;;;;;;;1.84;34.71;101033.31;4399795;32;33702;-78
2022/03/13 07:00:51;;;;;;;;;;;;;;;2.16;34.47;101034.66;4376435;32;34459;-78
2022/03/13 07:03:18;;;;;;;;;;;;;;;2.16;34.72;101032.88;4411308;32;32659;-78
2022/03/13 07:05:46;;;;;;;;;;;;;;;2.50;34.39;101021.81;4407578;32;33996;-79
2022/03/13 07:08:15;;;;;;;;;;;;;;;2.51;33.69;101016.53;4399794;32;35220;-82
2022/03/13 07:10:45;;;;;;;;;;;;;;;2.61;33.02;101024.88;4393310;32;35114;-79
2022/03/13 07:13:16;;;;;;;;;;;;;;;2.75;31.90;101020.75;4392250;32;33627;-78
2022/03/13 07:15:45;;;;;;;;;;;;;;;2.83;32.13;101021.25;4390683;32;33892;-78
2022/03/13 07:18:12;;;;;;;;;;;;;;;3.03;30.79;101014.19;4389827;32;34632;-78
2022/03/13 07:20:41;;;;;;;;;;;;;;;3.32;31.20;101015.53;4390263;32;34345;-78
2022/03/13 07:23:09;;;;;;;;;;;;;;;3.66;30.35;101010.41;4388869;32;32511;-79
2022/03/13 07:25:36;;;;;;;;;;;;;;;3.89;29.61;101007.56;4402390;32;33961;-79
2022/03/13 07:28:03;;;;;;;;;;;;;;;3.95;29.59;101012.50;4403105;32;35318;-78
2022/03/13 07:30:32;;;;;;;;;;;;;;;4.07;29.69;101018.03;4409907;32;34816;-79
2022/03/13 07:32:59;;;;;;;;;;;;;;;4.27;29.23;101014.47;4406485;32;33113;-80
2022/03/13 07:35:27;;;;;;;;;;;;;;;4.20;28.81;101015.69;4411458;32;34763;-79
2022/03/13 07:37:54;;;;;;;;;;;;;;;4.69;27.75;101012.28;4410568;32;35244;-79
2022/03/13 07:40:22;;;;;;;;;;;;;;;4.63;27.63;101013.47;4412400;32;33980;-80
2022/03/13 07:42:49;;;;;;;;;;;;;;;4.70;28.39;101024.56;4408462;32;33125;-80
2022/03/13 07:45:17;;;;;;;;;;;;;;;4.86;27.92;101022.81;4411876;32;33839;-78
2022/03/13 07:47:47;;;;;;;;;;;;;;;4.88;27.42;101021.81;4414135;32;34364;-78
2022/03/13 07:50:15;;;;;;;;;;;;;;;4.91;26.48;101021.66;4411726;32;35157;-79
2022/03/13 07:52:43;;;;;;;;;;;;;;;5.07;25.78;101017.31;4398024;32;32340;-79
2022/03/13 07:55:11;;;;;;;;;;;;;;;4.89;26.96;101027.97;4409400;32;33343;-79
2022/03/13 07:57:38;;;;;;;;;;;;;;;4.88;28.42;101024.47;4410708;32;36180;-83
2022/03/13 08:00:10;;;;;;;;;;;;;;;5.20;28.79;101025.44;4407178;32;33835;-80
2022/03/13 08:02:44;;;;;;;;;;;;;;;5.43;28.23;101027.69;4406084;32;33168;-79
2022/03/13 08:05:13;;;;;;;;;;;;;;;5.51;26.81;101029.00;4387806;32;33811;-80
2022/03/13 08:07:40;;;;;;;;;;;;;;;5.59;25.88;101032.06;4411315;32;35056;-82
2022/03/13 08:10:09;;;;;;;;;;;;;;;5.88;24.85;101026.91;4396030;32;35350;-78
2022/03/13 08:12:38;;;;;;;;;;;;;;;6.06;24.27;101015.31;4391956;32;32398;-79
2022/03/13 08:15:06;;;;;;;;;;;;;;;6.30;24.47;101018.34;4411840;32;34553;-79
2022/03/13 08:17:42;;;;;;;;;;;;;;;6.65;24.06;101022.44;4409590;32;35157;-81
2022/03/13 08:20:10;;;;;;;;;;;;;;;6.47;24.74;101021.75;4392451;32;34791;-78
2022/03/13 08:22:37;;;;;;;;;;;;;;;6.80;23.96;101016.28;4409750;32;33647;-78
2022/03/13 08:25:06;;;;;;;;;;;;;;;6.83;24.29;101019.59;4407036;32;33228;-78
2022/03/13 08:27:34;;;;;;;;;;;;;;;6.98;24.28;101021.28;4404603;32;34430;-78
2022/03/13 08:30:02;;;;;;;;;;;;;;;7.36;23.75;101017.16;4405377;32;34168;-78
2022/03/13 08:32:30;;;;;;;;;;;;;;;7.21;23.91;101014.62;4407501;32;33149;-79
2022/03/13 08:34:57;;;;;;;;;;;;;;;7.19;22.84;101016.50;4391752;32;33857;-79
2022/03/13 08:37:24;;;;;;;;;;;;;;;7.61;22.63;101008.53;4402487;32;35973;-78
2022/03/13 08:39:52;;;;;;;;;;;;;;;7.75;22.13;101006.72;4410936;32;34442;-77
2022/03/13 08:42:20;;;;;;;;;;;;;;;7.72;22.97;101006.09;4406997;32;32747;-79
2022/03/13 08:44:47;;;;;;;;;;;;;;;7.98;22.01;100998.16;4409832;32;34305;-77
2022/03/13 08:47:14;;;;;;;;;;;;;;;7.84;21.83;101003.50;4395508;32;34809;-80
2022/03/13 08:49:43;;;;;;;;;;;;;;;7.80;21.33;101002.00;4394606;32;35539;-78
2022/03/13 08:52:10;;;;;;;;;;;;;;;7.73;21.72;101003.31;4397493;32;33099;-81
2022/03/13 08:54:37;;;;;;;;;;;;;;;8.24;20.95;101004.44;4409628;32;34115;-79
2022/03/13 08:57:05;;;;;;;;;;;;;;;8.15;23.27;101000.59;4408222;32;35088;-79
2022/03/13 08:59:35;;;;;;;;;;;;;;;8.22;21.76;100999.25;4389964;32;34385;-79
2022/03/13 09:02:02;;;;;;;;;;;;;;;8.34;19.86;100994.94;4403371;32;33744;-77
2022/03/13 09:04:30;;;;;;;;;;;;;;;8.08;19.62;100987.81;4404527;32;32170;-78
2022/03/13 09:06:57;;;;;;;;;;;;;;;8.68;19.71;100992.59;4393145;32;34884;-78
2022/03/13 09:09:25;;;;;;;;;;;;;;;8.57;18.87;100995.97;4406676;32;35427;-79
2022/03/13 09:11:52;;;;;;;;;;;;;;;8.28;19.02;101000.66;4394641;32;32743;-78
2022/03/13 09:14:20;;;;;;;;;;;;;;;9.02;18.18;100984.91;4391850;32;33914;-81
2022/03/13 09:16:48;;;;;;;;;;;;;;;8.96;19.01;100989.75;4404402;32;36026;-77
2022/03/13 09:19:15;;;;;;;;;;;;;;;8.48;18.59;100986.94;4403203;32;34697;-79
2022/03/13 09:21:44;;;;;;;;;;;;;;;8.53;18.62;100989.16;4397415;32;33431;-78
2022/03/13 09:24:11;;;;;;;;;;;;;;;8.56;17.86;100988.97;4405357;32;33423;-79
2022/03/13 09:26:43;;;;;;;;;;;;;;;8.37;17.91;100985.00;4409399;32;35890;-78
2022/03/13 09:29:10;;;;;;;;;;;;;;;8.83;19.61;100981.81;4398032;32;33948;-81
2022/03/13 09:31:38;;;;;;;;;;;;;;;9.11;18.90;100984.25;4388751;32;31899;-80
2022/03/13 09:34:05;;;;;;;;;;;;;;;9.66;17.36;100979.37;4406289;32;33825;-84
2022/03/13 09:36:37;;;;;;;;;;;;;;;9.31;18.03;100972.22;4397161;32;35756;-80
2022/03/13 09:39:04;;;;;;;;;;;;;;;9.79;18.57;100974.91;4408980;32;35504;-81
2022/03/13 09:41:32;;;;;;;;;;;;;;;9.68;19.12;100979.28;4394075;32;33142;-81
2022/03/13 09:43:59;;;;;;;;;;;;;;;10.29;16.93;100977.38;4385825;32;32696;-81
2022/03/13 09:46:27;;;;;;;;;;;;;;;9.35;18.58;100976.37;4400223;32;34465;-84
2022/03/13 09:48:55;;;;;;;;;;;;;;;9.54;17.94;100968.81;4402548;32;34769;-81
2022/03/13 09:51:25;;;;;;;;;;;;;;;10.06;17.94;100967.62;4397783;32;33161;-78
2022/03/13 09:53:53;;;;;;;;;;;;;;;10.41;17.57;100959.66;4387779;32;35375;-80
2022/03/13 09:56:21;;;;;;;;;;;;;;;10.07;17.85;100955.16;4406783;32;34419;-79
2022/03/13 09:58:48;;;;;;;;;;;;;;;10.36;17.75;100948.50;4404309;32;35360;-79
2022/03/13 10:01:19;;;;;;;;;;;;;;;9.94;19.12;100949.00;4403184;32;33625;-80
2022/03/13 10:03:49;;;;;;;;;;;;;;;9.26;19.13;100955.78;4388391;32;34168;-79
2022/03/13 10:06:17;;;;;;;;;;;;;;;9.79;17.33;100964.28;4385549;32;34082;-79
2022/03/13 10:08:44;;;;;;;;;;;;;;;9.86;17.90;100951.38;4393762;32;34553;-81
2022/03/13 10:11:14;;;;;;;;;;;;;;;10.09;18.24;100956.75;4392803;32;32192;-80
2022/03/13 10:13:46;;;;;;;;;;;;;;;9.82;18.06;100947.25;4396954;32;33606;-79
2022/03/13 10:16:16;;;;;;;;;;;;;;;10.18;17.84;100944.59;4402665;32;35034;-79
2022/03/13 10:18:45;;;;;;;;;;;;;;;10.30;18.19;100941.84;4403389;32;34167;-80
2022/03/13 10:21:13;;;;;;;;;;;;;;;10.11;17.47;100940.69;4385169;32;31338;-80
2022/03/13 10:23:41;;;;;;;;;;;;;;;10.68;17.36;100941.63;4395619;32;33507;-79
2022/03/13 10:26:08;;;;;;;;;;;;;;;10.65;16.83;100942.69;4406960;32;34291;-81
2022/03/13 10:28:40;;;;;;;;;;;;;;;10.39;16.81;100933.16;4404830;32;35250;-81
2022/03/13 10:31:16;;;;;;;;;;;;;;;10.58;18.87;100933.47;4405046;32;33893;-80
2022/03/13 10:33:55;;;;;;;;;;;;;;;10.73;17.09;100942.09;4405631;32;34348;-80
2022/03/13 10:36:31;;;;;;;;;;;;;;;11.22;16.85;100926.69;4408952;32;34740;-81
2022/03/13 10:39:00;;;;;;;;;;;;;;;11.26;16.68;100934.31;4392576;32;33412;-85
2022/03/13 10:41:56;;;;;;;;;;;;;;;11.11;16.46;100924.03;4393326;32;32728;-80
2022/03/13 10:44:25;;;;;;;;;;;;;;;10.96;16.48;100934.03;4386922;32;33104;-82
2022/03/13 10:46:54;;;;;;;;;;;;;;;11.35;17.32;100930.94;4412075;32;35144;-82
2022/03/13 10:49:36;;;;;;;;;;;;;;;11.15;16.75;100920.12;4399866;32;34182;-89
2022/03/13 10:52:25;;;;;;;;;;;;;;;10.77;16.56;100932.94;4410234;32;33259;-84
2022/03/13 10:54:53;;;;;;;;;;;;;;;10.98;16.69;100924.13;4409347;32;33530;-88
2022/03/13 10:57:21;;;;;;;;;;;;;;;11.30;16.62;100919.78;4390468;32;35956;-81
2022/03/13 11:00:24;;;;;;;;;;;;;;;10.95;16.70;100916.38;4393463;32;35021;-81
2022/03/13 11:02:52;;;;;;;;;;;;;;;11.32;17.05;100912.50;4347676;32;33122;-82
2022/03/13 11:05:20;;;;;;;;;;;;;;;10.89;17.20;100919.53;4358947;32;33982;-82
2022/03/13 11:07:52;;;;;;;;;;;;;;;11.16;17.40;100913.84;4350537;32;35288;-84
2022/03/13 11:10:20;;;;;;;;;;;;;;;11.71;16.33;100912.03;4363082;32;33884;-83
2022/03/13 11:12:52;;;;;;;;;;;;;;;12.06;15.76;100902.81;4347690;32;32455;-82
2022/03/13 11:15:19;;;;;;;;;;;;;;;11.49;16.10;100910.19;4348954;32;34463;-81
2022/03/13 11:17:50;;;;;;;;;;;;;;;11.58;16.08;100908.63;4339453;32;35807;-86
2022/03/13 11:20:17;;;;;;;;;;;;;;;12.13;16.68;100900.47;4341156;32;34678;-82
2022/03/13 11:22:45;;;;;;;;;;;;;;;12.15;15.35;100898.53;4337171;32;33614;-81
2022/03/13 11:25:12;;;;;;;;;;;;;;;12.44;14.89;100899.59;4354376;32;33724;-83
2022/03/13 11:27:40;;;;;;;;;;;;;;;12.30;16.16;100900.75;4345115;32;34731;-82
2022/03/13 11:30:09;;;;;;;;;;;;;;;12.31;15.00;100899.81;4351992;32;35389;-83
2022/03/13 11:32:37;;;;;;;;;;;;;;;12.21;16.51;100895.34;4343654;32;33039;-85
2022/03/13 11:35:07;;;;;;;;;;;;;;;12.12;16.05;100896.94;4356378;32;32522;-85
2022/03/13 11:37:35;;;;;;;;;;;;;;;12.57;14.75;100893.09;4396677;32;34003;-83
2022/03/13 11:40:04;;;;;;;;;;;;;;;12.91;15.70;100885.69;4388644;32;35583;-84
2022/03/13 11:42:54;;;;;;;;;;;;;;;13.03;15.98;100874.00;4400308;32;33230;-83
2022/03/13 11:45:28;;;;;;;;;;;;;;;13.23;14.64;100884.63;4388411;32;32999;-82
2022/03/13 11:47:56;;;;;;;;;;;;;;;12.93;15.06;100878.44;4411714;32;35261;-82
2022/03/13 11:50:42;;;;;;;;;;;;;;;13.45;14.73;100879.09;4387423;32;34248;-81
2022/03/13 11:53:16;;;;;;;;;;;;;;;13.10;14.96;100876.00;4401756;32;33585;-84
2022/03/13 11:56:09;;;;;;;;;;;;;;;13.58;14.07;100868.16;4381215;32;33878;-88
2022/03/13 11:58:41;;;;;;;;;;;;;;;13.49;14.16;100860.94;4405321;32;35286;-84
2022/03/13 12:01:10;;;;;;;;;;;;;;;13.35;16.35;100855.97;4404315;32;34930;-84
2022/03/13 12:03:39;;;;;;;;;;;;;;;13.41;16.32;100856.25;4410297;32;33484;-81
2022/03/13 12:06:06;;;;;;;;;;;;;;;12.79;16.05;100855.59;4409860;32;34835;-84
2022/03/13 12:09:06;;;;;;;;;;;;;;;13.31;14.89;100851.91;4399348;32;36052;-82
2022/03/13 12:11:35;;;;;;;;;;;;;;;13.04;15.36;100838.28;4394241;32;34550;-87
2022/03/13 12:14:02;;;;;;;;;;;;;;;13.55;14.80;100839.84;4400359;32;33957;-83
2022/03/13 12:16:30;;;;;;;;;;;;;;;13.35;15.26;100834.59;4408137;32;33990;-83
2022/03/13 12:18:59;;;;;;;;;;;;;;;13.92;14.63;100824.84;4395822;32;35314;-83
2022/03/13 12:21:28;;;;;;;;;;;;;;;14.12;16.61;100833.69;4385503;32;32989;-90
2022/03/13 12:23:58;;;;;;;;;;;;;;;14.11;15.01;100821.28;4394983;32;34395;-84
2022/03/13 12:26:27;;;;;;;;;;;;;;;14.71;13.53;100814.59;4398809;32;34126;-86
2022/03/13 12:28:56;;;;;;;;;;;;;;;14.55;13.57;100811.69;4395866;32;35790;-90
2022/03/13 12:31:23;;;;;;;;;;;;;;;14.35;14.03;100817.19;4391482;32;34027;-84
2022/03/13 12:33:58;;;;;;;;;;;;;;;14.43;14.36;100811.16;4401790;32;32914;-89
2022/03/13 12:36:25;;;;;;;;;;;;;;;16.05;13.38;100809.31;4407895;32;35014;-88
2022/03/13 12:38:53;;;;;;;;;;;;;;;17.49;11.15;100808.38;4409190;32;35788;-85
2022/03/13 12:41:24;;;;;;;;;;;;;;;17.96;11.36;100802.22;4398524;32;32958;-86
2022/03/13 12:43:54;;;;;;;;;;;;;;;18.21;12.03;100800.38;4390682;32;32560;-84
2022/03/13 12:46:24;;;;;;;;;;;;;;;19.13;11.71;100791.66;4412543;32;33977;-84
2022/03/13 12:48:56;;;;;;;;;;;;;;;19.16;11.33;100793.97;4379883;32;34004;-96
2022/03/13 12:51:34;;;;;;;;;;;;;;;19.99;10.61;100789.66;4388423;32;34514;-87